createdAt,value
2018-05-13T00:00:18.911Z,18.80
2018-05-13T00:02:52.573Z,18.70
2018-05-13T00:05:26.952Z,18.60
2018-05-13T00:08:01.412Z,18.60
2018-05-13T00:10:35.148Z,18.60
2018-05-13T00:13:08.798Z,18.60
2018-05-13T00:15:42.489Z,18.60
2018-05-13T00:18:16.292Z,18.60
2018-05-13T00:20:50.728Z,18.50
2018-05-13T00:23:24.494Z,18.50
2018-05-13T00:25:58.914Z,18.50
2018-05-13T00:28:32.640Z,18.50
2018-05-13T00:31:06.395Z,18.40
2018-05-13T00:33:40.090Z,18.30
2018-05-13T00:36:14.484Z,18.10
2018-05-13T00:38:48.187Z,18.10
2018-05-13T00:41:21.909Z,18.10
2018-05-13T00:43:55.589Z,18.10
2018-05-13T00:46:30.106Z,18.10
2018-05-13T00:49:03.757Z,18.00
2018-05-13T00:51:37.384Z,18.00
2018-05-13T00:54:23.024Z,18.00
2018-05-13T00:56:56.830Z,18.00
2018-05-13T00:59:30.665Z,18.00
2018-05-13T01:02:04.419Z,18.00
2018-05-13T01:04:38.092Z,18.00
2018-05-13T01:07:11.852Z,17.90
2018-05-13T01:09:45.591Z,17.90
2018-05-13T01:12:20.092Z,17.90
2018-05-13T01:14:54.544Z,17.90
2018-05-13T01:17:28.964Z,17.90
2018-05-13T01:20:02.647Z,17.80
2018-05-13T01:22:36.428Z,17.80
2018-05-13T01:25:10.003Z,17.80
2018-05-13T01:27:43.722Z,17.80
2018-05-13T01:30:17.315Z,17.80
2018-05-13T01:32:51.083Z,17.80
2018-05-13T01:35:25.078Z,17.80
2018-05-13T01:37:58.808Z,17.80
2018-05-13T01:40:32.604Z,17.80
2018-05-13T01:43:06.971Z,17.90
2018-05-13T01:45:40.661Z,17.80
2018-05-13T01:48:14.232Z,17.80
2018-05-13T01:50:47.950Z,17.90
2018-05-13T01:53:21.709Z,17.80
2018-05-13T01:55:55.406Z,17.80
2018-05-13T01:58:29.219Z,17.80
2018-05-13T02:01:03.054Z,17.90
2018-05-13T02:03:36.684Z,17.80
2018-05-13T02:06:10.448Z,17.80
2018-05-13T02:08:44.222Z,17.70
2018-05-13T02:11:18.715Z,17.50
2018-05-13T02:13:52.316Z,17.50
2018-05-13T02:16:26.841Z,17.40
2018-05-13T02:19:00.586Z,17.50
2018-05-13T02:21:34.349Z,17.40
2018-05-13T02:24:08.051Z,17.40
2018-05-13T02:26:41.820Z,17.40
2018-05-13T02:29:15.578Z,17.40
2018-05-13T02:31:49.164Z,17.40
2018-05-13T02:34:22.872Z,17.40
2018-05-13T02:36:57.207Z,17.30
2018-05-13T02:39:31.751Z,17.30
2018-05-13T02:42:05.312Z,17.30
2018-05-13T02:44:38.903Z,17.30
2018-05-13T02:47:12.683Z,17.40
2018-05-13T02:49:46.279Z,17.40
2018-05-13T02:52:20.828Z,17.50
2018-05-13T02:54:54.549Z,17.50
2018-05-13T02:57:28.357Z,17.60
2018-05-13T03:00:02.906Z,17.70
2018-05-13T03:02:36.608Z,17.70
2018-05-13T03:05:10.422Z,17.80
2018-05-13T03:07:44.910Z,17.80
2018-05-13T03:10:18.748Z,17.80
2018-05-13T03:12:52.587Z,17.80
2018-05-13T03:15:26.222Z,17.80
2018-05-13T03:18:00.740Z,17.80
2018-05-13T03:20:34.528Z,17.80
2018-05-13T03:23:08.962Z,17.70
2018-05-13T03:25:42.692Z,17.60
2018-05-13T03:28:16.388Z,17.50
2018-05-13T03:30:50.185Z,17.50
2018-05-13T03:33:24.745Z,17.40
2018-05-13T03:35:58.341Z,17.40
2018-05-13T03:38:32.107Z,17.30
2018-05-13T03:41:05.890Z,17.20
2018-05-13T03:43:39.681Z,17.20
2018-05-13T03:46:14.256Z,17.20
2018-05-13T03:48:48.026Z,17.10
2018-05-13T03:51:21.644Z,17.10
2018-05-13T03:53:55.276Z,17.10
2018-05-13T03:56:29.126Z,17.10
2018-05-13T03:59:02.812Z,17.10
2018-05-13T04:01:36.513Z,17.00
2018-05-13T04:04:10.283Z,17.00
2018-05-13T04:06:44.844Z,16.90
2018-05-13T04:09:30.677Z,16.90
2018-05-13T04:12:16.382Z,16.80
2018-05-13T04:15:02.165Z,16.90
2018-05-13T04:17:35.935Z,16.90
2018-05-13T04:20:09.590Z,16.90
2018-05-13T04:22:43.420Z,17.00
2018-05-13T04:25:17.252Z,17.00
2018-05-13T04:27:51.138Z,17.00
2018-05-13T04:30:24.984Z,17.10
2018-05-13T04:32:58.812Z,17.10
2018-05-13T04:35:33.409Z,17.20
2018-05-13T04:38:07.151Z,17.20
2018-05-13T04:40:40.718Z,17.20
2018-05-13T04:43:14.343Z,17.20
2018-05-13T04:45:48.141Z,17.30
2018-05-13T04:48:21.920Z,17.30
2018-05-13T04:50:56.432Z,17.30
2018-05-13T04:53:30.210Z,17.30
2018-05-13T04:56:03.768Z,17.30
2018-05-13T04:58:37.367Z,17.30
2018-05-13T05:01:11.160Z,17.30
2018-05-13T05:03:44.993Z,17.40
2018-05-13T05:06:18.751Z,17.30
2018-05-13T05:08:52.546Z,17.40
2018-05-13T05:11:26.355Z,17.40
2018-05-13T05:14:00.093Z,17.30
2018-05-13T05:16:33.837Z,17.10
2018-05-13T05:19:07.550Z,17.00
2018-05-13T05:21:41.301Z,17.00
2018-05-13T05:24:14.877Z,17.00
2018-05-13T05:26:48.525Z,17.00
2018-05-13T05:29:22.284Z,17.10
2018-05-13T05:31:55.920Z,17.10
2018-05-13T05:34:29.525Z,17.30
2018-05-13T05:37:03.284Z,17.30
2018-05-13T05:39:37.165Z,17.30
2018-05-13T05:42:10.887Z,17.40
2018-05-13T05:44:44.656Z,17.40
2018-05-13T05:47:19.293Z,17.50
2018-05-13T05:49:53.077Z,17.50
2018-05-13T05:52:26.914Z,17.50
2018-05-13T05:55:00.782Z,17.60
2018-05-13T05:57:34.579Z,17.70
2018-05-13T06:00:08.423Z,17.80
2018-05-13T06:02:42.124Z,17.90
2018-05-13T06:05:15.966Z,18.20
2018-05-13T06:07:50.533Z,18.30
2018-05-13T06:10:25.116Z,18.30
2018-05-13T06:12:58.653Z,18.30
2018-05-13T06:15:32.271Z,18.20
2018-05-13T06:18:06.029Z,18.00
2018-05-13T06:20:39.862Z,18.10
2018-05-13T06:23:13.697Z,18.40
2018-05-13T06:25:47.384Z,18.40
2018-05-13T06:28:21.179Z,18.70
2018-05-13T06:30:55.007Z,19.00
2018-05-13T06:33:28.616Z,18.70
2018-05-13T06:36:02.411Z,18.80
2018-05-13T06:38:36.095Z,18.60
2018-05-13T06:41:09.805Z,18.30
2018-05-13T06:43:43.580Z,18.50
2018-05-13T06:46:17.271Z,18.60
2018-05-13T06:48:51.043Z,18.70
2018-05-13T06:51:24.667Z,18.80
2018-05-13T06:53:58.424Z,19.00
2018-05-13T06:56:32.912Z,19.30
2018-05-13T06:59:06.716Z,19.30
2018-05-13T07:01:40.497Z,19.50
2018-05-13T07:04:14.936Z,19.70
2018-05-13T07:06:49.429Z,19.70
2018-05-13T07:09:23.240Z,19.70
2018-05-13T07:11:57.026Z,19.70
2018-05-13T07:14:31.470Z,19.80
2018-05-13T07:17:05.242Z,19.70
2018-05-13T07:19:38.889Z,19.80
2018-05-13T07:22:12.702Z,19.50
2018-05-13T07:24:46.447Z,19.40
2018-05-13T07:27:20.258Z,19.30
2018-05-13T07:29:53.879Z,19.20
2018-05-13T07:32:29.454Z,19.50
2018-05-13T07:35:03.313Z,19.40
2018-05-13T07:37:37.133Z,19.50
2018-05-13T07:40:10.827Z,19.50
2018-05-13T07:42:45.269Z,19.00
2018-05-13T07:45:19.079Z,19.00
2018-05-13T07:47:52.808Z,19.00
2018-05-13T07:50:26.505Z,18.80
2018-05-13T07:53:00.307Z,18.80
2018-05-13T07:55:34.861Z,18.60
2018-05-13T07:58:09.343Z,18.60
2018-05-13T08:00:43.070Z,18.60
2018-05-13T08:03:17.580Z,18.80
2018-05-13T08:05:51.349Z,18.80
2018-05-13T08:08:25.081Z,19.00
2018-05-13T08:10:58.857Z,19.00
2018-05-13T08:13:32.593Z,19.10
2018-05-13T08:16:06.236Z,19.00
2018-05-13T08:18:39.871Z,19.10
2018-05-13T08:21:13.436Z,19.30
2018-05-13T08:23:47.121Z,19.50
2018-05-13T08:26:21.023Z,19.90
2018-05-13T08:28:54.720Z,20.10
2018-05-13T08:31:28.367Z,20.00
2018-05-13T08:34:02.888Z,19.80
2018-05-13T08:36:36.772Z,19.80
2018-05-13T08:39:10.572Z,19.80
2018-05-13T08:41:44.950Z,20.00
2018-05-13T08:44:18.832Z,19.90
2018-05-13T08:46:52.452Z,19.90
2018-05-13T08:49:26.140Z,19.90
2018-05-13T08:51:59.939Z,19.90
2018-05-13T08:54:33.692Z,19.90
2018-05-13T08:57:07.456Z,19.60
2018-05-13T08:59:41.206Z,19.40
2018-05-13T09:02:15.702Z,19.30
2018-05-13T09:04:49.475Z,19.30
2018-05-13T09:07:23.177Z,18.90
2018-05-13T09:09:56.817Z,18.80
2018-05-13T09:12:30.491Z,18.80
2018-05-13T09:15:04.892Z,18.90
2018-05-13T09:17:40.020Z,19.20
2018-05-13T09:20:13.840Z,19.20
2018-05-13T09:22:47.612Z,19.00
2018-05-13T09:25:21.384Z,18.90
2018-05-13T09:27:55.148Z,18.80
2018-05-13T09:30:29.653Z,18.60
2018-05-13T09:33:03.542Z,18.60
2018-05-13T09:35:37.988Z,18.70
2018-05-13T09:38:12.590Z,18.70
2018-05-13T09:40:46.412Z,18.70
2018-05-13T09:43:21.040Z,18.80
2018-05-13T09:45:54.893Z,18.70
2018-05-13T09:48:28.667Z,18.80
2018-05-13T09:51:03.092Z,18.70
2018-05-13T09:53:36.889Z,18.70
2018-05-13T09:56:10.785Z,18.50
2018-05-13T09:58:44.661Z,18.40
2018-05-13T10:01:18.518Z,18.40
2018-05-13T10:03:53.054Z,18.50
2018-05-13T10:06:26.740Z,18.40
2018-05-13T10:09:00.501Z,18.40
2018-05-13T10:11:34.129Z,18.40
2018-05-13T10:14:07.915Z,18.40
2018-05-13T10:16:41.628Z,18.20
2018-05-13T10:19:16.206Z,18.10
2018-05-13T10:21:49.989Z,18.10
2018-05-13T10:24:23.781Z,17.80
2018-05-13T10:26:57.532Z,17.80
2018-05-13T10:29:31.280Z,17.90
2018-05-13T10:32:05.015Z,18.00
2018-05-13T10:34:39.536Z,18.10
2018-05-13T10:37:13.305Z,18.10
2018-05-13T10:39:47.118Z,18.20
2018-05-13T10:42:21.638Z,18.00
2018-05-13T10:44:55.319Z,18.00
2018-05-13T10:47:29.133Z,18.20
2018-05-13T10:50:02.896Z,18.20
2018-05-13T10:52:37.404Z,18.20
2018-05-13T10:55:12.017Z,18.10
2018-05-13T10:57:45.801Z,18.10
2018-05-13T11:00:19.645Z,18.10
2018-05-13T11:02:53.363Z,18.00
2018-05-13T11:05:27.893Z,18.00
2018-05-13T11:08:02.354Z,18.00
2018-05-13T11:10:36.979Z,18.10
2018-05-13T11:13:10.726Z,18.10
2018-05-13T11:15:45.259Z,18.20
2018-05-13T11:18:19.052Z,18.20
2018-05-13T11:20:52.891Z,18.20
2018-05-13T11:23:27.414Z,17.90
2018-05-13T11:26:01.129Z,17.90
2018-05-13T11:28:36.058Z,18.20
2018-05-13T11:31:10.497Z,18.30
2018-05-13T11:33:44.274Z,18.30
2018-05-13T11:36:18.085Z,18.30
2018-05-13T11:38:52.644Z,18.50
2018-05-13T11:41:26.398Z,18.50
2018-05-13T11:44:00.148Z,18.80
2018-05-13T11:46:33.951Z,18.80
2018-05-13T11:49:07.637Z,18.70
2018-05-13T11:51:41.354Z,18.70
2018-05-13T11:54:15.062Z,18.60
2018-05-13T11:56:48.864Z,18.70
2018-05-13T11:59:22.639Z,18.70
2018-05-13T12:01:56.376Z,18.60
2018-05-13T12:04:30.174Z,18.50
2018-05-13T12:07:03.981Z,18.40
2018-05-13T12:09:37.657Z,18.50
2018-05-13T12:12:11.448Z,18.60
2018-05-13T12:14:46.058Z,18.80
2018-05-13T12:17:19.684Z,18.70
2018-05-13T12:19:53.499Z,18.80
2018-05-13T12:22:27.343Z,19.00
2018-05-13T12:25:01.162Z,19.30
2018-05-13T12:27:34.898Z,19.30
2018-05-13T12:30:08.748Z,19.40
2018-05-13T12:32:42.480Z,19.40
2018-05-13T12:35:16.128Z,19.30
2018-05-13T12:37:49.989Z,19.20
2018-05-13T12:40:24.436Z,19.40
2018-05-13T12:42:59.053Z,19.30
2018-05-13T12:45:32.893Z,19.30
2018-05-13T12:48:06.771Z,19.20
2018-05-13T12:50:41.289Z,19.40
2018-05-13T12:53:15.831Z,19.40
2018-05-13T12:55:49.632Z,19.40
2018-05-13T12:58:23.387Z,19.60
2018-05-13T13:00:57.145Z,19.50
2018-05-13T13:03:30.929Z,19.60
2018-05-13T13:06:04.582Z,19.50
2018-05-13T13:08:39.268Z,19.90
2018-05-13T13:11:13.149Z,19.80
2018-05-13T13:13:46.891Z,20.00
2018-05-13T13:16:21.398Z,20.00
2018-05-13T13:18:55.188Z,20.00
2018-05-13T13:21:29.652Z,20.10
2018-05-13T13:24:03.448Z,20.00
2018-05-13T13:26:37.153Z,19.90
2018-05-13T13:29:10.872Z,19.90
2018-05-13T13:31:44.572Z,20.00
2018-05-13T13:34:18.948Z,19.70
2018-05-13T13:36:52.789Z,19.60
2018-05-13T13:39:27.385Z,19.30
2018-05-13T13:42:01.196Z,19.30
2018-05-13T13:44:35.790Z,19.30
2018-05-13T13:47:09.382Z,19.30
2018-05-13T13:49:43.849Z,19.00
2018-05-13T13:52:18.461Z,18.90
2018-05-13T13:54:52.245Z,18.90
2018-05-13T13:57:26.049Z,18.90
2018-05-13T14:00:00.519Z,18.90
2018-05-13T14:02:35.127Z,19.00
2018-05-13T14:05:08.837Z,19.00
2018-05-13T14:07:42.455Z,18.80
2018-05-13T14:10:16.157Z,18.90
2018-05-13T14:12:50.651Z,18.70
2018-05-13T14:15:24.368Z,18.70
2018-05-13T14:17:58.169Z,18.70
2018-05-13T14:20:31.970Z,18.90
2018-05-13T14:23:05.642Z,18.70
2018-05-13T14:25:40.080Z,18.60
2018-05-13T14:28:14.536Z,18.50
2018-05-13T14:30:48.194Z,18.40
2018-05-13T14:33:22.011Z,18.50
2018-05-13T14:35:55.809Z,18.30
2018-05-13T14:38:29.612Z,18.10
2018-05-13T14:41:03.396Z,18.00
2018-05-13T14:43:37.138Z,17.90
2018-05-13T14:46:10.904Z,18.00
2018-05-13T14:48:44.786Z,18.10
2018-05-13T14:51:18.545Z,18.10
2018-05-13T14:53:52.198Z,18.00
2018-05-13T14:56:26.670Z,17.80
2018-05-13T14:59:00.389Z,17.80
2018-05-13T15:01:34.898Z,17.90
2018-05-13T15:04:08.559Z,17.80
2018-05-13T15:06:42.344Z,17.90
2018-05-13T15:09:16.199Z,18.00
2018-05-13T15:11:49.997Z,18.20
2018-05-13T15:14:23.603Z,18.30
2018-05-13T15:16:57.325Z,18.30
2018-05-13T15:19:31.179Z,18.20
2018-05-13T15:22:04.941Z,18.20
2018-05-13T15:24:38.674Z,18.10
2018-05-13T15:27:12.464Z,18.00
2018-05-13T15:29:46.365Z,18.00
2018-05-13T15:32:20.092Z,18.00
2018-05-13T15:34:53.840Z,17.90
2018-05-13T15:37:27.480Z,17.80
2018-05-13T15:40:02.032Z,17.70
2018-05-13T15:42:36.717Z,17.50
2018-05-13T15:45:10.449Z,17.50
2018-05-13T15:47:44.303Z,17.50
2018-05-13T15:50:18.033Z,17.20
2018-05-13T15:52:51.969Z,17.00
2018-05-13T15:55:25.720Z,17.10
2018-05-13T15:57:59.424Z,17.10
2018-05-13T16:00:33.164Z,17.10
2018-05-13T16:03:07.827Z,16.90
2018-05-13T16:05:42.379Z,16.90
2018-05-13T16:08:16.080Z,16.90
2018-05-13T16:10:49.991Z,16.80
2018-05-13T16:13:23.839Z,16.80
2018-05-13T16:15:58.382Z,16.80
2018-05-13T16:18:32.001Z,16.80
2018-05-13T16:21:05.801Z,16.80
2018-05-13T16:23:39.668Z,16.90
2018-05-13T16:26:13.499Z,16.90
2018-05-13T16:28:47.930Z,17.00
2018-05-13T16:31:22.607Z,17.00
2018-05-13T16:33:56.440Z,17.00
2018-05-13T16:36:30.296Z,17.00
2018-05-13T16:39:03.913Z,17.00
2018-05-13T16:41:38.500Z,16.80
2018-05-13T16:44:12.327Z,16.70
2018-05-13T16:46:46.136Z,16.70
2018-05-13T16:49:20.694Z,16.70
2018-05-13T16:51:54.426Z,16.70
2018-05-13T16:54:28.204Z,16.70
2018-05-13T16:57:01.967Z,16.70
2018-05-13T16:59:35.745Z,16.70
2018-05-13T17:02:09.537Z,16.60
2018-05-13T17:04:43.252Z,16.60
2018-05-13T17:07:17.055Z,16.40
2018-05-13T17:09:50.857Z,16.20
2018-05-13T17:12:24.608Z,16.20
2018-05-13T17:14:58.389Z,16.20
2018-05-13T17:17:33.066Z,16.30
2018-05-13T17:20:06.830Z,16.40
2018-05-13T17:22:40.671Z,16.50
2018-05-13T17:25:15.238Z,16.40
2018-05-13T17:27:49.042Z,16.40
2018-05-13T17:30:22.883Z,16.40
2018-05-13T17:32:57.430Z,16.40
2018-05-13T17:35:31.166Z,16.40
2018-05-13T17:38:05.029Z,16.50
2018-05-13T17:40:38.769Z,16.40
2018-05-13T17:43:12.569Z,16.40
2018-05-13T17:45:46.268Z,16.30
2018-05-13T17:48:20.049Z,16.20
2018-05-13T17:50:53.874Z,16.10
2018-05-13T17:53:28.486Z,16.20
2018-05-13T17:56:02.345Z,16.20
2018-05-13T17:58:36.011Z,16.20
2018-05-13T18:01:09.737Z,16.10
2018-05-13T18:03:43.452Z,16.00
2018-05-13T18:06:17.398Z,15.90
2018-05-13T18:08:51.240Z,15.80
2018-05-13T18:11:25.140Z,15.80
2018-05-13T18:13:58.979Z,15.90
2018-05-13T18:16:32.826Z,15.90
2018-05-13T18:19:06.496Z,15.90
2018-05-13T18:21:40.273Z,15.80
2018-05-13T18:24:14.812Z,15.60
2018-05-13T18:26:48.568Z,15.60
2018-05-13T18:29:23.153Z,15.60
2018-05-13T18:31:56.860Z,15.60
2018-05-13T18:34:30.673Z,15.50
2018-05-13T18:37:04.457Z,15.50
2018-05-13T18:39:38.893Z,15.30
2018-05-13T18:42:12.579Z,15.20
2018-05-13T18:44:46.324Z,15.10
2018-05-13T18:47:20.883Z,15.10
2018-05-13T18:49:55.337Z,15.00
2018-05-13T18:52:29.905Z,15.10
2018-05-13T18:55:03.709Z,15.10
2018-05-13T18:57:37.570Z,15.10
2018-05-13T19:00:12.098Z,14.90
2018-05-13T19:02:45.696Z,14.90
2018-05-13T19:05:19.587Z,14.80
2018-05-13T19:07:54.037Z,14.50
2018-05-13T19:10:28.521Z,14.40
2018-05-13T19:13:03.188Z,14.40
2018-05-13T19:15:36.881Z,14.40
2018-05-13T19:18:10.664Z,14.40
2018-05-13T19:20:44.433Z,14.50
2018-05-13T19:23:18.208Z,14.40
2018-05-13T19:25:51.916Z,14.40
2018-05-13T19:28:26.442Z,14.30
2018-05-13T19:31:00.227Z,14.20
2018-05-13T19:33:34.080Z,14.20
2018-05-13T19:36:08.645Z,14.20
2018-05-13T19:38:43.213Z,14.20
2018-05-13T19:41:16.982Z,14.20
2018-05-13T19:43:51.520Z,14.20
2018-05-13T19:46:26.106Z,14.10
2018-05-13T19:48:59.847Z,14.10
2018-05-13T19:51:33.683Z,14.10
2018-05-13T19:54:07.486Z,14.10
2018-05-13T19:56:41.224Z,13.90
2018-05-13T19:59:14.968Z,13.90
2018-05-13T20:01:48.857Z,13.90
2018-05-13T20:04:22.586Z,13.90
2018-05-13T20:06:56.383Z,14.00
2018-05-13T20:09:30.370Z,14.00
2018-05-13T20:12:04.115Z,14.00
2018-05-13T20:14:37.984Z,13.90
2018-05-13T20:17:11.811Z,14.00
2018-05-13T20:19:45.537Z,14.00
2018-05-13T20:22:19.341Z,14.00
2018-05-13T20:24:53.849Z,14.10
2018-05-13T20:27:28.400Z,14.00
2018-05-13T20:30:01.989Z,13.90
2018-05-13T20:32:35.780Z,13.90
2018-05-13T20:35:10.268Z,13.80
2018-05-13T20:37:43.863Z,13.80
2018-05-13T20:40:17.649Z,13.90
2018-05-13T20:42:51.413Z,13.90
2018-05-13T20:45:25.240Z,14.00
2018-05-13T20:47:59.045Z,14.00
2018-05-13T20:50:33.640Z,14.10
2018-05-13T20:53:07.370Z,14.10
2018-05-13T20:55:41.873Z,14.10
2018-05-13T20:58:15.720Z,14.00
2018-05-13T21:00:49.386Z,14.10
2018-05-13T21:03:23.213Z,14.10
2018-05-13T21:05:57.062Z,14.10
2018-05-13T21:08:30.932Z,14.20
2018-05-13T21:11:05.480Z,14.30
2018-05-13T21:13:39.144Z,14.30
2018-05-13T21:16:13.118Z,14.40
2018-05-13T21:18:46.762Z,14.40
2018-05-13T21:21:20.578Z,14.40
2018-05-13T21:23:54.234Z,14.30
2018-05-13T21:26:28.757Z,14.40
2018-05-13T21:29:02.509Z,14.40
2018-05-13T21:31:37.091Z,14.30
2018-05-13T21:34:11.621Z,14.30
2018-05-13T21:36:45.381Z,14.20
2018-05-13T21:39:19.053Z,14.20
2018-05-13T21:41:52.801Z,14.40
2018-05-13T21:44:26.564Z,14.40
2018-05-13T21:47:00.284Z,14.40
2018-05-13T21:49:33.966Z,14.40
2018-05-13T21:52:07.782Z,14.30
2018-05-13T21:54:42.231Z,14.30
2018-05-13T21:57:15.991Z,14.20
2018-05-13T21:59:49.638Z,14.20
2018-05-13T22:02:23.529Z,14.20
2018-05-13T22:04:58.994Z,14.10
2018-05-13T22:07:32.753Z,14.10
2018-05-13T22:10:06.558Z,14.00
2018-05-13T22:12:41.128Z,14.00
2018-05-13T22:15:14.976Z,14.00
2018-05-13T22:17:48.741Z,14.00
2018-05-13T22:20:22.524Z,14.00
2018-05-13T22:22:56.996Z,13.90
2018-05-13T22:25:30.697Z,13.90
2018-05-13T22:28:05.135Z,13.90
2018-05-13T22:30:39.655Z,13.90
2018-05-13T22:33:13.468Z,13.90
2018-05-13T22:35:47.245Z,13.90
2018-05-13T22:38:21.029Z,13.90
2018-05-13T22:40:55.602Z,14.00
2018-05-13T22:43:29.225Z,13.90
2018-05-13T22:46:02.828Z,14.00
2018-05-13T22:48:36.618Z,14.00
2018-05-13T22:51:10.403Z,13.90
2018-05-13T22:53:44.241Z,13.90
2018-05-13T22:56:18.016Z,14.00
2018-05-13T22:58:52.324Z,14.10
2018-05-13T23:01:26.720Z,14.00
2018-05-13T23:04:00.472Z,14.00
2018-05-13T23:06:34.302Z,14.00
2018-05-13T23:09:08.125Z,14.00
2018-05-13T23:11:41.839Z,14.00
2018-05-13T23:14:15.497Z,14.00
2018-05-13T23:16:50.075Z,14.00
2018-05-13T23:19:23.737Z,14.00
2018-05-13T23:21:57.551Z,13.90
2018-05-13T23:24:31.415Z,13.90
2018-05-13T23:27:05.264Z,14.00
2018-05-13T23:29:39.755Z,14.00
2018-05-13T23:32:14.240Z,14.00
2018-05-13T23:34:47.905Z,14.00
2018-05-13T23:37:22.479Z,14.00
2018-05-13T23:39:56.148Z,14.00
2018-05-13T23:42:29.674Z,14.00
2018-05-13T23:45:03.551Z,14.00
2018-05-13T23:47:37.316Z,14.00
2018-05-13T23:50:11.984Z,14.20
2018-05-13T23:52:45.776Z,14.20
2018-05-13T23:55:19.512Z,14.20
2018-05-13T23:57:53.305Z,14.10
